Time;durP1;ratioP1;P1;durP2;ratioP2;P2;SDS_P1;SDS_P2;PMS_P1;PMS_P2;Temp;Humidity;BMP_temperature;BMP_pressure;BME280_temperature;BME280_humidity;BME280_pressure;Samples;Min_cycle;Max_cycle;Signal;HPM_P1;HPM_P2
2021/12/20 00:01:58;;;;;;;22.15;5.70;;;;;;;5.88;60.42;102250.91;4947366;28;123181;-83
2021/12/20 00:04:24;;;;;;;17.77;5.70;;;;;;;5.85;60.47;102248.97;4956326;28;121297;-82
2021/12/20 00:06:49;;;;;;;14.38;5.20;;;;;;;5.88;60.26;102250.91;4956649;28;120052;-81
2021/12/20 00:09:15;;;;;;;20.70;5.32;;;;;;;5.91;60.48;102244.75;4934292;28;121703;-82
2021/12/20 00:11:41;;;;;;;17.10;5.00;;;;;;;5.94;60.85;102251.41;4937037;28;123304;-82
2021/12/20 00:14:08;;;;;;;21.60;6.57;;;;;;;5.91;60.51;102250.19;4953489;28;120538;-82
2021/12/20 00:16:33;;;;;;;17.60;5.00;;;;;;;5.88;60.38;102237.31;4945852;28;124461;-80
2021/12/20 00:18:59;;;;;;;20.25;6.78;;;;;;;6.04;60.92;102264.28;4959211;28;124375;-81
2021/12/20 00:21:25;;;;;;;18.15;5.43;;;;;;;6.05;60.93;102269.34;4943221;28;119419;-81
2021/12/20 00:23:50;;;;;;;15.73;5.03;;;;;;;5.90;60.59;102237.72;4969986;28;122585;-82
2021/12/20 00:26:16;;;;;;;18.83;5.13;;;;;;;6.02;60.28;102245.59;4937106;28;120163;-81
2021/12/20 00:28:41;;;;;;;16.25;5.70;;;;;;;6.08;59.79;102256.91;4950491;28;122543;-81
2021/12/20 00:31:08;;;;;;;16.85;5.60;;;;;;;6.13;59.54;102264.72;4959846;28;121452;-83
2021/12/20 00:33:34;;;;;;;19.38;6.55;;;;;;;6.10;59.56;102254.59;4971246;28;119447;-81
2021/12/20 00:36:03;;;;;;;18.77;5.65;;;;;;;6.00;59.62;102250.66;4956035;28;119343;-82
2021/12/20 00:41:14;;;;;;;16.58;6.15;;;;;;;6.00;59.87;102261.56;4950859;28;120675;-82
2021/12/20 00:43:39;;;;;;;21.63;5.90;;;;;;;5.96;59.99;102254.53;4937404;28;121506;-82
2021/12/20 00:46:05;;;;;;;20.10;7.05;;;;;;;5.92;60.85;102249.06;4960128;28;119897;-81
2021/12/20 00:48:31;;;;;;;16.13;5.90;;;;;;;6.03;60.53;102271.69;4941583;28;121649;-82
2021/12/20 00:50:56;;;;;;;17.92;5.07;;;;;;;5.98;60.17;102263.09;4977086;28;122525;-82
2021/12/20 00:53:22;;;;;;;13.20;5.18;;;;;;;6.01;59.48;102274.00;4925868;28;120392;-82
2021/12/20 00:55:48;;;;;;;18.98;6.30;;;;;;;6.01;59.57;102275.94;4976913;28;119461;-82
2021/12/20 00:58:14;;;;;;;16.55;6.18;;;;;;;5.94;59.79;102267.75;4961257;28;119788;-83
2021/12/20 01:00:47;;;;;;;18.45;6.07;;;;;;;5.86;59.71;102253.25;4976797;28;119520;-83
2021/12/20 01:03:15;;;;;;;19.80;5.63;;;;;;;5.89;60.28;102247.03;4947329;28;122182;-83
2021/12/20 01:05:42;;;;;;;18.52;5.22;;;;;;;5.93;60.67;102258.00;4966930;28;119889;-84
2021/12/20 01:08:09;;;;;;;17.58;5.18;;;;;;;5.97;60.51;102275.16;4960533;28;122364;-83
2021/12/20 01:10:39;;;;;;;21.15;6.70;;;;;;;6.00;60.40;102277.91;4963661;28;121608;-82
2021/12/20 01:13:06;;;;;;;17.95;4.40;;;;;;;5.91;60.24;102257.56;4962765;28;119579;-82
2021/12/20 01:15:36;;;;;;;13.27;4.57;;;;;;;6.02;60.42;102264.66;4941375;28;119444;-83
2021/12/20 01:18:04;;;;;;;15.95;4.82;;;;;;;6.09;60.60;102266.66;4961754;28;121888;-83
2021/12/20 01:20:30;;;;;;;18.80;4.95;;;;;;;6.02;60.09;102256.50;4959954;28;119995;-83
2021/12/20 01:22:56;;;;;;;19.05;4.20;;;;;;;6.03;60.10;102252.63;4965832;28;121535;-83
2021/12/20 01:25:23;;;;;;;23.92;6.05;;;;;;;6.06;60.19;102267.41;4968200;28;122407;-83
2021/12/20 01:27:49;;;;;;;12.70;4.50;;;;;;;6.12;59.67;102271.34;4970956;28;121325;-83
2021/12/20 01:30:16;;;;;;;16.25;4.50;;;;;;;6.10;59.59;102262.75;4961619;28;119311;-83
2021/12/20 01:32:42;;;;;;;17.63;5.70;;;;;;;6.14;59.71;102264.34;4951238;28;119456;-83
2021/12/20 01:35:09;;;;;;;19.70;4.82;;;;;;;6.03;59.52;102243.66;4965391;28;119834;-82
2021/12/20 01:37:35;;;;;;;15.68;4.47;;;;;;;6.08;59.70;102248.75;4966610;28;123962;-83
2021/12/20 01:40:01;;;;;;;14.50;4.15;;;;;;;6.12;59.45;102260.44;4947911;28;120330;-82
2021/12/20 01:42:31;;;;;;;11.02;4.20;;;;;;;6.02;59.35;102251.06;4946779;28;121825;-83
2021/12/20 01:44:57;;;;;;;37.67;15.70;;;;;;;6.02;59.65;102256.50;4963839;28;122583;-82
2021/12/20 01:47:30;;;;;;;18.98;5.07;;;;;;;6.11;59.33;102256.16;4930859;28;119955;-83
2021/12/20 01:52:42;;;;;;;15.48;4.72;;;;;;;6.02;59.57;102256.50;4943680;28;119440;-83
2021/12/20 01:55:11;;;;;;;19.25;4.85;;;;;;;6.05;59.35;102261.19;4975288;28;121131;-83
2021/12/20 01:57:37;;;;;;;14.65;4.95;;;;;;;6.03;59.10;102260.00;4947553;28;123184;-82
2021/12/20 02:00:09;;;;;;;12.95;4.00;;;;;;;6.02;58.94;102277.50;4947335;28;119871;-83
2021/12/20 02:02:36;;;;;;;13.85;4.28;;;;;;;6.01;59.13;102279.44;4970872;28;119451;-82
2021/12/20 02:05:13;;;;;;;15.35;4.50;;;;;;;6.03;59.21;102281.78;4976246;28;123102;-82
2021/12/20 02:08:00;;;;;;;16.85;4.97;;;;;;;5.98;58.54;102279.44;4963440;28;119429;-83
2021/12/20 02:10:26;;;;;;;14.23;4.28;;;;;;;5.86;58.83;102261.41;4963729;28;122485;-82
2021/12/20 02:12:52;;;;;;;12.50;3.70;;;;;;;5.87;58.73;102262.97;4981336;28;119818;-82
2021/12/20 02:15:19;;;;;;;15.80;4.57;;;;;;;5.83;58.69;102271.13;4948268;28;120420;-83
2021/12/20 02:17:45;;;;;;;17.13;4.68;;;;;;;5.74;59.01;102262.53;4964948;28;120045;-83
2021/12/20 02:20:24;;;;;;;16.75;4.43;;;;;;;5.79;59.16;102269.53;4934815;28;119678;-84
2021/12/20 02:22:49;;;;;;;15.20;4.13;;;;;;;5.85;59.64;102276.19;4948322;28;122290;-84
2021/12/20 02:25:15;;;;;;;13.50;4.32;;;;;;;5.84;59.39;102283.59;4964943;28;123114;-82
2021/12/20 02:27:40;;;;;;;14.23;4.00;;;;;;;5.77;59.42;102269.94;4967317;28;119497;-84
2021/12/20 02:30:24;;;;;;;13.07;3.80;;;;;;;5.89;59.51;102282.44;4967564;28;122194;-83
2021/12/20 02:38:26;;;;;;;14.20;4.18;;;;;;;5.73;58.64;102255.50;4944617;28;121454;-82
2021/12/20 02:41:07;;;;;;;16.30;4.20;;;;;;;5.81;58.57;102275.41;4963960;28;125215;-82
2021/12/20 02:43:40;;;;;;;14.52;4.05;;;;;;;5.78;58.46;102273.44;4926728;28;122282;-83
2021/12/20 02:46:45;;;;;;;14.93;4.22;;;;;;;5.75;58.87;102279.63;4961699;28;122733;-83
2021/12/20 02:49:16;;;;;;;13.88;4.30;;;;;;;5.73;59.24;102265.63;4979723;28;119645;-83
2021/12/20 02:51:43;;;;;;;14.95;4.43;;;;;;;5.82;59.20;102282.41;4963493;28;120701;-82
2021/12/20 02:54:11;;;;;;;14.80;4.10;;;;;;;5.76;59.51;102262.91;4981540;28;120187;-83
2021/12/20 02:56:38;;;;;;;12.73;4.20;;;;;;;5.80;59.24;102271.09;4976917;28;119492;-83
2021/12/20 02:59:04;;;;;;;11.80;3.95;;;;;;;5.85;59.25;102273.47;4948064;28;121450;-83
2021/12/20 03:01:30;;;;;;;14.00;4.20;;;;;;;5.88;59.21;102282.81;4965294;28;119500;-82
2021/12/20 03:03:57;;;;;;;15.45;4.35;;;;;;;5.85;58.84;102278.91;4965207;28;119445;-82
2021/12/20 03:06:35;;;;;;;15.40;4.13;;;;;;;5.91;59.12;102287.53;4939680;28;120074;-83
2021/12/20 03:09:03;;;;;;;12.23;4.00;;;;;;;5.90;58.95;102291.44;4966298;28;119437;-82
2021/12/20 03:11:29;;;;;;;10.55;4.15;;;;;;;5.85;58.43;102289.81;4921347;28;121992;-82
2021/12/20 03:14:07;;;;;;;12.63;4.22;;;;;;;5.86;58.68;102286.72;4996856;28;119865;-82
2021/12/20 03:16:34;;;;;;;17.70;4.38;;;;;;;5.85;58.13;102279.69;4968976;28;119538;-81
2021/12/20 03:19:01;;;;;;;17.27;4.15;;;;;;;5.81;58.63;102278.91;4945528;28;122812;-81
2021/12/20 03:21:27;;;;;;;12.70;4.00;;;;;;;5.73;58.97;102263.69;4953125;28;119523;-81
2021/12/20 03:23:52;;;;;;;12.65;4.43;;;;;;;5.82;58.94;102280.47;4955671;28;120533;-81
2021/12/20 03:26:18;;;;;;;12.45;4.03;;;;;;;5.78;58.71;102273.44;4963528;28;120046;-82
2021/12/20 03:28:44;;;;;;;16.73;4.30;;;;;;;5.69;58.72;102264.81;4958168;28;119826;-81
2021/12/20 03:31:12;;;;;;;9.27;3.92;;;;;;;5.73;59.39;102269.13;4955151;28;121860;-82
2021/12/20 03:33:38;;;;;;;12.23;4.07;;;;;;;5.90;59.19;102303.09;4955795;28;122195;-82
2021/12/20 03:36:04;;;;;;;10.20;4.03;;;;;;;5.85;58.58;102289.81;4957159;28;119480;-81
2021/12/20 03:38:29;;;;;;;15.75;3.92;;;;;;;5.81;58.37;102297.97;4955954;28;122955;-81
2021/12/20 03:40:55;;;;;;;13.60;4.13;;;;;;;5.83;58.58;102303.03;4960559;28;121361;-82
2021/12/20 03:43:24;;;;;;;14.00;4.45;;;;;;;5.75;58.48;102290.53;4957963;28;122998;-82
2021/12/20 03:45:51;;;;;;;14.35;3.78;;;;;;;5.80;58.49;102304.56;4949898;28;123366;-83
2021/12/20 03:48:17;;;;;;;11.80;3.42;;;;;;;5.63;58.84;102280.69;4979137;28;119457;-84
2021/12/20 03:50:48;;;;;;;13.38;3.88;;;;;;;5.53;58.98;102254.97;4966835;28;121138;-84
2021/12/20 03:53:17;;;;;;;11.85;3.80;;;;;;;5.71;59.08;102285.06;4968268;28;121007;-85
2021/12/20 03:55:44;;;;;;;11.25;3.85;;;;;;;5.75;58.46;102294.03;4951855;28;119232;-84
2021/12/20 03:58:12;;;;;;;12.32;3.72;;;;;;;5.71;57.91;102292.44;4949005;28;119921;-85
2021/12/20 04:00:43;;;;;;;10.82;3.35;;;;;;;5.64;58.19;102286.94;4967835;28;121454;-83
2021/12/20 04:03:13;;;;;;;15.07;4.03;;;;;;;5.49;58.20;102277.88;4970780;28;119298;-84
2021/12/20 04:05:41;;;;;;;10.60;4.28;;;;;;;5.57;58.41;102293.09;4960685;28;122687;-82
2021/12/20 04:08:08;;;;;;;11.85;3.75;;;;;;;5.60;58.45;102299.72;4917720;28;119437;-83
2021/12/20 04:10:36;;;;;;;11.00;4.07;;;;;;;5.62;58.61;102302.84;4960176;28;121420;-82
2021/12/20 04:13:03;;;;;;;12.82;4.32;;;;;;;5.49;58.81;102284.09;4940437;28;120404;-81
2021/12/20 04:15:30;;;;;;;15.32;4.00;;;;;;;5.45;58.42;102282.50;4994396;28;119142;-83
2021/12/20 04:17:56;;;;;;;17.85;4.53;;;;;;;5.58;58.59;102291.16;4945602;28;122459;-83
2021/12/20 04:20:22;;;;;;;12.55;4.13;;;;;;;5.59;58.64;102298.16;4961197;28;123190;-82
2021/12/20 04:22:47;;;;;;;15.57;4.20;;;;;;;5.63;58.39;102299.75;4977547;28;119379;-82
2021/12/20 04:25:13;;;;;;;13.45;3.80;;;;;;;5.61;58.60;102298.56;4926977;28;121508;-84
2021/12/20 04:27:38;;;;;;;13.32;3.60;;;;;;;5.68;58.42;102307.59;4961270;28;119301;-83
2021/12/20 04:30:11;;;;;;;10.50;3.75;;;;;;;5.60;58.94;102295.06;4946602;28;120009;-82
2021/12/20 04:32:43;;;;;;;15.40;3.85;;;;;;;5.67;58.63;102311.44;4957528;28;123991;-82
2021/12/20 04:35:10;;;;;;;15.82;3.72;;;;;;;5.61;58.55;102298.56;4943908;28;119555;-82
2021/12/20 04:37:36;;;;;;;10.80;4.03;;;;;;;5.59;58.72;102290.00;4967511;28;120460;-84
2021/12/20 04:40:07;;;;;;;13.13;4.07;;;;;;;5.68;58.25;102310.31;4963206;28;119674;-82
2021/12/20 04:42:33;;;;;;;9.68;3.53;;;;;;;5.68;58.44;102317.69;4927931;28;119452;-83
2021/12/20 04:44:59;;;;;;;13.80;4.57;;;;;;;5.63;58.55;102304.41;4949666;28;119673;-81
2021/12/20 04:47:24;;;;;;;10.88;3.50;;;;;;;5.61;58.57;102302.06;4956880;28;119516;-83
2021/12/20 04:49:50;;;;;;;14.35;3.63;;;;;;;5.58;58.33;102288.44;4967311;28;122374;-82
2021/12/20 04:52:16;;;;;;;12.85;3.90;;;;;;;5.65;58.44;102299.38;4940384;28;123584;-83
2021/12/20 04:54:41;;;;;;;13.80;4.00;;;;;;;5.58;58.37;102289.22;4947247;28;119619;-82
2021/12/20 04:57:07;;;;;;;12.15;3.88;;;;;;;5.54;58.62;102283.75;4966957;28;121881;-82
2021/12/20 04:59:32;;;;;;;9.23;3.95;;;;;;;5.61;58.24;102301.28;4966554;28;122554;-82
2021/12/20 05:01:58;;;;;;;10.75;3.70;;;;;;;5.61;58.20;102302.06;4985681;28;120007;-82
2021/12/20 05:04:24;;;;;;;13.93;3.80;;;;;;;5.57;57.97;102301.25;4951433;28;120397;-83
2021/12/20 05:06:50;;;;;;;10.30;3.80;;;;;;;5.61;57.70;102310.25;4986021;28;120351;-83
2021/12/20 05:09:17;;;;;;;13.38;3.85;;;;;;;5.54;57.51;102308.25;4970196;28;121582;-82
2021/12/20 05:11:50;;;;;;;12.02;3.72;;;;;;;5.48;58.05;102301.59;4965686;28;122159;-82
2021/12/20 05:14:16;;;;;;;11.27;3.50;;;;;;;5.48;58.48;102298.88;4963836;28;119565;-83
2021/12/20 05:16:41;;;;;;;12.52;3.90;;;;;;;5.48;58.34;102293.44;4969558;28;120804;-82
2021/12/20 05:19:07;;;;;;;9.38;3.65;;;;;;;5.43;58.08;102285.59;4947047;28;123152;-84
2021/12/20 05:21:33;;;;;;;13.85;4.05;;;;;;;5.50;58.02;102301.22;4985301;28;122563;-82
2021/12/20 05:23:58;;;;;;;10.25;3.38;;;;;;;5.50;58.04;102293.06;4964612;28;121700;-82
2021/12/20 05:26:24;;;;;;;13.73;4.18;;;;;;;5.57;58.18;102311.38;4943776;28;120804;-82
2021/12/20 05:28:50;;;;;;;12.00;4.00;;;;;;;5.49;58.40;102295.00;4954986;28;121898;-86
2021/12/20 05:31:17;;;;;;;13.32;4.05;;;;;;;5.36;57.90;102268.41;4958915;28;119105;-86
2021/12/20 05:33:44;;;;;;;9.20;3.33;;;;;;;5.54;57.94;102308.25;4952396;28;119321;-85
2021/12/20 05:36:13;;;;;;;10.77;3.83;;;;;;;5.64;58.03;102320.38;4970145;28;120242;-85
2021/12/20 05:38:40;;;;;;;10.90;3.45;;;;;;;5.43;58.34;102293.75;4980959;28;123562;-83
2021/12/20 05:41:07;;;;;;;11.48;3.55;;;;;;;5.57;57.86;102298.53;4930991;28;119585;-84
2021/12/20 05:43:33;;;;;;;12.48;3.67;;;;;;;5.35;57.63;102272.31;4965549;28;120767;-82
2021/12/20 05:45:58;;;;;;;9.98;3.72;;;;;;;5.52;57.79;102283.34;4963558;28;119419;-81
2021/12/20 05:48:25;;;;;;;13.50;3.55;;;;;;;5.45;57.08;102286.03;4963203;28;119557;-85
2021/12/20 05:50:51;;;;;;;13.18;3.60;;;;;;;5.43;57.63;102285.59;4967592;28;121277;-83
2021/12/20 05:53:17;;;;;;;12.20;3.90;;;;;;;5.31;57.93;102277.72;4978017;28;119668;-85
2021/12/20 05:55:43;;;;;;;11.07;3.40;;;;;;;5.23;57.65;102262.50;4966676;28;121950;-83
2021/12/20 05:58:09;;;;;;;8.65;3.40;;;;;;;5.64;57.33;102322.31;4934551;28;122783;-85
2021/12/20 06:00:35;;;;;;;11.98;4.00;;;;;;;5.35;57.32;102288.63;4965947;28;119479;-84
2021/12/20 06:03:01;;;;;;;11.95;3.22;;;;;;;5.27;57.37;102278.84;4949530;28;120642;-85
2021/12/20 06:05:27;;;;;;;11.10;3.35;;;;;;;5.25;57.65;102279.22;4947518;28;121998;-85
2021/12/20 06:07:53;;;;;;;11.77;3.85;;;;;;;5.30;57.77;102287.03;4980816;28;119243;-85
2021/12/20 06:10:19;;;;;;;12.55;3.35;;;;;;;5.22;57.22;102269.09;4955403;28;119424;-84
2021/12/20 06:12:46;;;;;;;9.90;3.55;;;;;;;5.31;57.11;102288.59;4950227;28;119260;-86
2021/12/20 06:15:13;;;;;;;12.43;3.67;;;;;;;5.30;57.46;102286.25;4967899;28;121960;-84
2021/12/20 06:17:40;;;;;;;8.73;3.45;;;;;;;5.19;57.60;102269.81;4964130;28;123061;-85
2021/12/20 06:20:09;;;;;;;8.48;3.35;;;;;;;5.06;57.33;102254.94;4965128;28;119434;-85
2021/12/20 06:22:36;;;;;;;12.18;3.30;;;;;;;5.33;57.50;102308.06;4995257;28;123193;-82
2021/12/20 06:25:03;;;;;;;11.27;3.90;;;;;;;5.19;57.81;102297.81;4959269;28;121303;-82
2021/12/20 06:27:29;;;;;;;15.18;4.72;;;;;;;5.19;57.60;102305.19;4961793;28;124016;-81
2021/12/20 06:29:55;;;;;;;7.38;3.45;;;;;;;5.53;57.51;102358.41;4943264;28;119615;-82
2021/12/20 06:32:21;;;;;;;11.90;3.85;;;;;;;5.32;57.58;102328.25;4964397;28;122207;-82
2021/12/20 06:34:47;;;;;;;9.57;3.35;;;;;;;5.49;57.56;102354.09;4944246;28;122435;-81
2021/12/20 06:37:13;;;;;;;9.30;3.90;;;;;;;5.18;57.78;102298.97;4962853;28;123171;-82
2021/12/20 06:39:39;;;;;;;12.55;3.97;;;;;;;5.24;57.40;102307.59;4961843;28;119455;-82
2021/12/20 06:42:04;;;;;;;12.52;4.00;;;;;;;5.37;57.48;102336.06;4962441;28;120756;-82
2021/12/20 06:44:30;;;;;;;14.02;4.38;;;;;;;5.34;57.43;102345.00;4964782;28;122576;-82
2021/12/20 06:46:57;;;;;;;11.18;3.90;;;;;;;5.43;57.49;102371.91;4942618;28;119670;-82
2021/12/20 06:49:23;;;;;;;12.27;4.00;;;;;;;5.33;57.85;102350.81;4963134;28;121840;-82
2021/12/20 06:51:49;;;;;;;8.52;3.72;;;;;;;5.38;57.40;102367.56;4960289;28;119471;-82
2021/12/20 06:54:16;;;;;;;11.07;3.70;;;;;;;5.38;57.17;102369.50;4942082;28;119502;-82
2021/12/20 06:56:43;;;;;;;14.38;4.25;;;;;;;5.28;57.21;102356.59;4972032;28;121508;-81
2021/12/20 06:59:10;;;;;;;11.90;4.78;;;;;;;5.32;57.53;102369.06;4942097;28;119769;-82
2021/12/20 07:01:36;;;;;;;14.57;4.05;;;;;;;5.26;58.03;102361.63;4942254;28;121971;-81
2021/12/20 07:04:03;;;;;;;9.68;4.43;;;;;;;5.25;57.80;102366.28;4945732;28;122514;-82
2021/12/20 07:06:29;;;;;;;12.10;4.20;;;;;;;5.19;57.70;102359.59;4954207;28;119396;-82
2021/12/20 07:08:56;;;;;;;9.20;3.65;;;;;;;5.16;58.13;102358.41;4995730;28;119428;-82
2021/12/20 07:11:22;;;;;;;13.73;3.97;;;;;;;5.19;57.75;102367.75;4962337;28;123598;-82
2021/12/20 07:13:48;;;;;;;12.70;3.90;;;;;;;5.17;58.19;102368.13;4961944;28;119527;-82
2021/12/20 07:16:14;;;;;;;8.68;3.38;;;;;;;5.15;57.38;102375.09;4965906;28;121780;-81
2021/12/20 07:18:39;;;;;;;10.80;3.58;;;;;;;5.16;57.88;102371.22;4960758;28;119323;-82
2021/12/20 07:21:05;;;;;;;11.52;4.05;;;;;;;5.22;57.43;102384.16;4978705;28;121469;-83
2021/12/20 07:23:31;;;;;;;9.02;3.50;;;;;;;5.11;57.20;102366.13;4961152;28;121492;-80
2021/12/20 07:25:56;;;;;;;7.95;3.72;;;;;;;5.26;57.62;102386.91;4962013;28;120321;-82
2021/12/20 07:28:22;;;;;;;9.27;3.65;;;;;;;5.16;57.26;102365.78;4964581;28;120156;-82
2021/12/20 07:30:49;;;;;;;11.15;3.70;;;;;;;5.22;57.40;102372.47;4960925;28;121217;-84
2021/12/20 07:33:15;;;;;;;8.85;3.95;;;;;;;5.08;57.89;102355.97;4955071;28;119430;-82
2021/12/20 07:35:42;;;;;;;13.70;3.80;;;;;;;5.14;57.59;102365.38;4945256;28;121658;-83
2021/12/20 07:38:12;;;;;;;7.95;3.50;;;;;;;5.14;57.16;102363.44;4963763;28;122532;-85
2021/12/20 07:40:43;;;;;;;13.18;4.22;;;;;;;4.98;57.79;102343.06;4947114;28;120107;-85
2021/12/20 07:43:09;;;;;;;11.13;4.22;;;;;;;5.19;58.12;102378.63;4963718;28;120242;-84
2021/12/20 07:45:35;;;;;;;10.52;4.10;;;;;;;5.11;57.81;102374.28;4960440;28;120036;-81
2021/12/20 07:48:01;;;;;;;13.27;4.70;;;;;;;5.16;57.99;102376.66;4968818;28;120171;-81
2021/12/20 07:50:27;;;;;;;9.63;3.90;;;;;;;5.19;57.98;102382.13;4950095;28;122915;-81
2021/12/20 07:52:53;;;;;;;11.30;3.83;;;;;;;5.21;57.94;102389.97;4934912;28;119975;-80
2021/12/20 07:55:18;;;;;;;10.88;4.00;;;;;;;5.20;57.46;102380.19;4927554;28;123075;-80
2021/12/20 07:57:44;;;;;;;10.88;5.20;;;;;;;5.29;57.84;102388.09;4948098;28;120257;-80
2021/12/20 08:00:11;;;;;;;12.70;4.07;;;;;;;5.29;58.08;102380.72;4955293;28;119381;-81
2021/12/20 08:02:39;;;;;;;10.55;4.22;;;;;;;5.24;57.74;102381.84;4933714;28;121707;-81
2021/12/20 08:05:05;;;;;;;11.27;4.65;;;;;;;5.29;57.23;102388.88;4948657;28;119429;-80
2021/12/20 08:07:31;;;;;;;10.75;5.20;;;;;;;5.27;57.21;102387.69;4966432;28;119615;-80
2021/12/20 08:09:56;;;;;;;17.00;5.60;;;;;;;5.24;57.13;102383.78;4955910;28;119836;-82
2021/12/20 08:12:22;;;;;;;11.65;5.22;;;;;;;5.26;57.58;102389.63;4959548;28;119500;-81
2021/12/20 08:14:48;;;;;;;12.55;6.07;;;;;;;5.31;57.54;102399.38;4973476;28;120198;-81
2021/12/20 08:17:13;;;;;;;14.00;6.32;;;;;;;5.26;57.59;102383.41;4943167;28;122494;-82
2021/12/20 08:19:39;;;;;;;12.07;5.22;;;;;;;5.33;57.67;102394.34;4961807;28;119553;-84
2021/12/20 08:22:05;;;;;;;11.27;4.50;;;;;;;5.29;57.73;102388.88;4956770;28;123296;-82
2021/12/20 08:24:31;;;;;;;14.27;5.35;;;;;;;5.37;58.05;102395.16;4973100;28;119528;-81
2021/12/20 08:26:56;;;;;;;11.50;4.70;;;;;;;5.35;57.80;102392.81;4953986;28;120392;-84
2021/12/20 08:29:23;;;;;;;14.30;4.93;;;;;;;5.37;57.87;102395.16;4958306;28;122185;-83
2021/12/20 08:31:52;;;;;;;11.27;4.13;;;;;;;5.45;57.79;102397.59;4969418;28;119982;-83
2021/12/20 08:34:18;;;;;;;13.80;4.65;;;;;;;5.36;57.50;102380.78;4944776;28;122330;-83
2021/12/20 08:36:44;;;;;;;12.00;5.72;;;;;;;5.46;57.54;102399.16;4943970;28;121527;-83
2021/12/20 08:39:15;;;;;;;15.73;6.55;;;;;;;5.44;57.38;102392.50;4945116;28;119753;-84
2021/12/20 08:41:40;;;;;;;14.45;6.05;;;;;;;5.46;57.91;102403.84;4945511;28;122215;-83
2021/12/20 08:44:06;;;;;;;12.02;5.88;;;;;;;5.44;57.68;102387.06;4922998;28;119589;-84
2021/12/20 08:46:32;;;;;;;12.25;4.88;;;;;;;5.54;57.79;102406.25;4973780;28;119375;-81
2021/12/20 08:48:58;;;;;;;10.15;4.47;;;;;;;5.49;57.83;102392.97;4979406;28;119854;-85
2021/12/20 08:51:25;;;;;;;9.23;4.10;;;;;;;5.62;57.74;102401.66;4945502;28;119897;-84
2021/12/20 08:53:51;;;;;;;13.35;5.03;;;;;;;5.65;57.42;102400.13;4980756;28;119995;-82
2021/12/20 08:56:18;;;;;;;13.65;5.47;;;;;;;5.44;57.73;102368.00;4960781;28;121975;-84
2021/12/20 08:58:45;;;;;;;11.18;4.45;;;;;;;5.43;57.07;102371.91;4976748;28;119900;-85
2021/12/20 09:01:12;;;;;;;9.05;4.53;;;;;;;5.72;57.61;102408.38;4945982;28;122159;-83
2021/12/20 09:03:41;;;;;;;10.70;4.20;;;;;;;5.44;57.42;102371.56;4964697;28;119941;-83
2021/12/20 09:06:09;;;;;;;9.02;3.60;;;;;;;5.52;57.34;102370.44;4962635;28;119597;-83
2021/12/20 09:08:35;;;;;;;11.32;3.80;;;;;;;5.80;57.03;102412.72;4957557;28;122148;-80
2021/12/20 09:11:01;;;;;;;11.98;4.03;;;;;;;5.92;57.03;102419.88;4970597;28;119991;-81
2021/12/20 09:13:27;;;;;;;14.75;4.05;;;;;;;5.85;57.19;102410.44;4954747;28;120523;-81
2021/12/20 09:15:55;;;;;;;9.70;3.83;;;;;;;5.82;57.15;102400.28;4938360;28;123546;-82
2021/12/20 09:18:20;;;;;;;10.10;4.35;;;;;;;5.98;57.01;102416.41;4971046;28;121483;-83
2021/12/20 09:20:46;;;;;;;11.07;4.82;;;;;;;6.01;57.03;102409.44;4959618;28;119382;-85
2021/12/20 09:23:13;;;;;;;9.05;4.93;;;;;;;6.08;56.95;102413.00;4940654;28;122192;-82
2021/12/20 09:25:43;;;;;;;10.35;4.00;;;;;;;6.07;56.07;102407.91;4954932;28;120266;-83
2021/12/20 09:28:11;;;;;;;13.68;4.13;;;;;;;6.13;56.15;102409.91;4956796;28;121660;-82
2021/12/20 09:30:39;;;;;;;14.80;4.20;;;;;;;6.26;56.44;102423.25;4939141;28;120570;-83
2021/12/20 09:33:04;;;;;;;16.08;3.85;;;;;;;6.23;56.62;102413.13;4950132;28;119464;-82
2021/12/20 09:35:32;;;;;;;12.48;3.72;;;;;;;6.30;57.12;102413.16;4938724;28;121495;-83
2021/12/20 09:37:57;;;;;;;8.65;3.30;;;;;;;6.43;56.70;102415.22;4965877;28;119481;-84
2021/12/20 09:40:37;;;;;;;8.18;3.00;;;;;;;6.51;56.54;102417.97;4961120;28;120477;-83
2021/12/20 09:43:13;;;;;;;7.80;3.28;;;;;;;6.66;56.08;102436.00;4958651;28;121529;-84
2021/12/20 09:45:45;;;;;;;9.88;3.53;;;;;;;6.65;55.90;102423.53;4948410;28;119690;-84
2021/12/20 09:48:14;;;;;;;8.48;3.50;;;;;;;6.54;55.26;102401.63;4954209;28;121343;-85
2021/12/20 09:50:40;;;;;;;8.70;3.42;;;;;;;6.40;55.41;102363.41;4925298;28;120524;-83
2021/12/20 09:53:09;;;;;;;12.73;3.50;;;;;;;6.59;55.46;102393.09;4947461;28;121862;-85
2021/12/20 09:55:36;;;;;;;8.48;3.50;;;;;;;6.72;55.88;102399.78;4968624;28;122467;-85
2021/12/20 09:58:06;;;;;;;11.60;3.35;;;;;;;6.96;55.72;102417.47;4944835;28;119077;-85
2021/12/20 10:00:37;;;;;;;8.40;3.10;;;;;;;6.90;54.55;102404.56;4967053;28;121143;-85
2021/12/20 10:03:13;;;;;;;8.95;2.75;;;;;;;6.90;54.76;102396.38;4968154;28;120763;-85
2021/12/20 10:05:44;;;;;;;6.57;2.65;;;;;;;6.94;55.18;102389.00;4955101;28;119432;-87
2021/12/20 10:08:20;;;;;;;8.63;2.72;;;;;;;6.96;54.84;102381.22;4955105;28;121029;-85
2021/12/20 10:10:53;;;;;;;13.57;3.50;;;;;;;7.06;54.31;102396.81;4954477;28;121951;-84
2021/12/20 10:13:38;;;;;;;5.30;2.50;;;;;;;7.14;54.09;102390.25;4967313;28;121247;-84
2021/12/20 10:16:21;;;;;;;8.30;2.70;;;;;;;6.98;54.12;102363.28;4977885;28;120403;-83
2021/12/20 10:18:51;;;;;;;11.32;3.08;;;;;;;7.24;53.23;102386.75;4979962;28;119436;-84
2021/12/20 10:21:20;;;;;;;6.90;2.45;;;;;;;7.60;53.03;102439.53;4951870;28;121195;-84
2021/12/20 10:23:50;;;;;;;11.68;3.28;;;;;;;7.12;53.19;102354.38;4966372;28;121828;-84
2021/12/20 10:26:21;;;;;;;8.38;3.20;;;;;;;7.69;52.66;102429.00;4950729;28;120209;-84
2021/12/20 10:28:52;;;;;;;8.80;3.00;;;;;;;7.67;52.77;102423.13;4951272;28;120055;-84
2021/12/20 10:31:22;;;;;;;7.22;2.55;;;;;;;7.30;53.14;102365.31;4967391;28;119775;-83
2021/12/20 10:33:58;;;;;;;10.02;3.45;;;;;;;7.84;52.71;102442.69;4974066;28;123283;-83
2021/12/20 10:36:25;;;;;;;7.18;3.20;;;;;;;7.43;52.81;102380.19;4976857;28;123199;-84
2021/12/20 10:38:58;;;;;;;9.90;3.25;;;;;;;7.52;53.71;102371.59;4965983;28;119221;-83
2021/12/20 10:41:34;;;;;;;8.40;3.27;;;;;;;7.47;52.97;102358.34;4956744;28;122560;-83
2021/12/20 10:44:14;;;;;;;11.00;3.30;;;;;;;7.80;51.88;102392.69;4970413;28;120168;-82
2021/12/20 10:46:51;;;;;;;9.60;2.88;;;;;;;7.87;52.48;102398.97;4985235;28;120526;-83
2021/12/20 10:49:18;;;;;;;6.93;2.30;;;;;;;7.59;52.95;102361.50;4980165;28;122667;-83
2021/12/20 10:51:51;;;;;;;7.43;2.88;;;;;;;7.64;52.47;102369.28;4980910;28;123090;-85
2021/12/20 10:54:29;;;;;;;7.25;2.35;;;;;;;7.77;52.29;102379.81;4941036;28;119985;-85
2021/12/20 10:57:05;;;;;;;8.35;2.65;;;;;;;8.15;52.85;102424.75;4978298;28;121073;-85
2021/12/20 10:59:42;;;;;;;7.25;2.70;;;;;;;7.78;53.20;102365.00;4996702;28;119213;-85
2021/12/20 11:03:12;;;;;;;7.90;2.40;;;;;;;7.74;51.93;102348.59;4965198;28;120437;-85
2021/12/20 11:05:30;;;;;;;8.18;2.70;;;;;;;7.89;52.19;102366.56;4957925;28;123178;-84
2021/12/20 11:11:14;;;;;;;12.70;2.70;;;;;;;8.06;51.98;102384.16;4917578;28;120358;-84
2021/12/20 11:13:47;;;;;;;8.90;2.60;;;;;;;7.96;51.02;102349.38;4958416;28;120732;-84
2021/12/20 11:16:51;;;;;;;11.80;2.40;;;;;;;8.01;52.27;102346.25;4917420;28;119636;-84
2021/12/20 11:19:25;;;;;;;8.60;2.47;;;;;;;8.22;51.20;102373.56;4947262;28;121407;-85
2021/12/20 11:22:00;;;;;;;6.27;2.10;;;;;;;8.59;51.40;102418.88;4919935;28;119515;-83
2021/12/20 11:25:03;;;;;;;6.90;2.17;;;;;;;8.26;51.74;102360.66;4959127;28;120456;-85
2021/12/20 11:27:40;;;;;;;5.90;2.10;;;;;;;8.34;51.27;102368.91;4933982;28;123426;-84
2021/12/20 11:30:20;;;;;;;7.53;2.10;;;;;;;8.40;51.70;102370.06;4960862;28;119483;-85
2021/12/20 11:32:53;;;;;;;11.65;2.90;;;;;;;8.17;51.94;102330.22;4902170;28;119832;-85
2021/12/20 11:35:33;;;;;;;8.80;2.00;;;;;;;8.31;50.93;102343.88;4942676;28;121186;-84
2021/12/20 11:38:02;;;;;;;6.68;2.13;;;;;;;8.60;50.53;102382.13;4941250;28;118850;-84
2021/12/20 11:40:35;;;;;;;7.43;2.30;;;;;;;8.42;50.38;102352.06;4930152;28;119500;-83